sensor_id;sensor_type;location;lat;lon;timestamp;P1;durP1;ratioP1;P2;durP2;ratioP2
55350;SDS011;62194;49.480;10.986;2023-04-03T00:00:00;2.27;;;1.70;;
55350;SDS011;62194;49.480;10.986;2023-04-03T00:00:05;2.42;;;1.80;;
55350;SDS011;62194;49.480;10.986;2023-04-03T00:00:13;2.60;;;1.90;;
55350;SDS011;62194;49.480;10.986;2023-04-03T00:00:19;2.80;;;1.95;;
55350;SDS011;62194;49.480;10.986;2023-04-03T00:00:25;2.83;;;1.90;;
55350;SDS011;62194;49.480;10.986;2023-04-03T00:00:30;2.70;;;1.90;;
55350;SDS011;62194;49.480;10.986;2023-04-03T00:00:36;2.47;;;1.87;;
55350;SDS011;62194;49.480;10.986;2023-04-03T00:00:41;2.55;;;1.90;;
55350;SDS011;62194;49.480;10.986;2023-04-03T00:00:47;2.53;;;1.80;;
55350;SDS011;62194;49.480;10.986;2023-04-03T00:00:55;2.97;;;1.90;;
55350;SDS011;62194;49.480;10.986;2023-04-03T00:01:02;2.97;;;1.87;;
55350;SDS011;62194;49.480;10.986;2023-04-03T00:01:07;2.80;;;1.83;;
55350;SDS011;62194;49.480;10.986;2023-04-03T00:01:13;2.53;;;1.70;;
55350;SDS011;62194;49.480;10.986;2023-04-03T00:01:19;2.13;;;1.73;;
55350;SDS011;62194;49.480;10.986;2023-04-03T00:01:34;2.10;;;1.73;;
55350;SDS011;62194;49.480;10.986;2023-04-03T00:01:43;2.53;;;1.70;;
55350;SDS011;62194;49.480;10.986;2023-04-03T00:01:48;2.60;;;1.70;;
55350;SDS011;62194;49.480;10.986;2023-04-03T00:01:54;2.70;;;1.70;;
55350;SDS011;62194;49.480;10.986;2023-04-03T00:01:59;2.63;;;1.75;;
55350;SDS011;62194;49.480;10.986;2023-04-03T00:02:05;2.80;;;1.70;;
55350;SDS011;62194;49.480;10.986;2023-04-03T00:02:10;2.67;;;1.70;;
55350;SDS011;62194;49.480;10.986;2023-04-03T00:02:16;2.70;;;1.80;;
55350;SDS011;62194;49.480;10.986;2023-04-03T00:02:21;2.90;;;1.90;;
55350;SDS011;62194;49.480;10.986;2023-04-03T00:02:26;3.10;;;1.90;;
55350;SDS011;62194;49.480;10.986;2023-04-03T00:02:32;3.00;;;1.93;;
55350;SDS011;62194;49.480;10.986;2023-04-03T00:02:37;2.88;;;1.90;;
55350;SDS011;62194;49.480;10.986;2023-04-03T00:02:43;2.78;;;1.90;;
55350;SDS011;62194;49.480;10.986;2023-04-03T00:02:48;2.63;;;1.90;;
55350;SDS011;62194;49.480;10.986;2023-04-03T00:02:53;2.53;;;1.80;;
55350;SDS011;62194;49.480;10.986;2023-04-03T00:03:02;2.47;;;1.70;;
55350;SDS011;62194;49.480;10.986;2023-04-03T00:03:07;3.27;;;1.70;;
55350;SDS011;62194;49.480;10.986;2023-04-03T00:03:13;3.17;;;1.70;;
55350;SDS011;62194;49.480;10.986;2023-04-03T00:03:18;3.33;;;1.73;;
55350;SDS011;62194;49.480;10.986;2023-04-03T00:03:25;3.17;;;1.70;;
55350;SDS011;62194;49.480;10.986;2023-04-03T00:03:30;2.47;;;1.70;;
55350;SDS011;62194;49.480;10.986;2023-04-03T00:03:35;2.40;;;1.60;;
55350;SDS011;62194;49.480;10.986;2023-04-03T00:03:42;2.33;;;1.60;;
55350;SDS011;62194;49.480;10.986;2023-04-03T00:03:47;2.13;;;1.63;;
55350;SDS011;62194;49.480;10.986;2023-04-03T00:03:52;2.40;;;1.70;;
55350;SDS011;62194;49.480;10.986;2023-04-03T00:03:58;3.10;;;1.80;;
55350;SDS011;62194;49.480;10.986;2023-04-03T00:04:04;2.93;;;1.80;;
55350;SDS011;62194;49.480;10.986;2023-04-03T00:04:10;2.96;;;1.94;;
55350;SDS011;62194;49.480;10.986;2023-04-03T00:04:18;3.17;;;1.93;;
55350;SDS011;62194;49.480;10.986;2023-04-03T00:04:23;2.95;;;1.80;;
55350;SDS011;62194;49.480;10.986;2023-04-03T00:04:28;2.50;;;1.80;;
55350;SDS011;62194;49.480;10.986;2023-04-03T00:04:37;2.70;;;1.80;;
55350;SDS011;62194;49.480;10.986;2023-04-03T00:04:43;2.50;;;1.80;;
55350;SDS011;62194;49.480;10.986;2023-04-03T00:04:48;2.63;;;1.80;;
55350;SDS011;62194;49.480;10.986;2023-04-03T00:04:53;3.25;;;1.90;;
55350;SDS011;62194;49.480;10.986;2023-04-03T00:04:59;3.00;;;1.80;;
55350;SDS011;62194;49.480;10.986;2023-04-03T00:05:04;2.78;;;1.80;;
55350;SDS011;62194;49.480;10.986;2023-04-03T00:05:10;2.70;;;1.73;;
55350;SDS011;62194;49.480;10.986;2023-04-03T00:05:16;2.70;;;1.80;;
55350;SDS011;62194;49.480;10.986;2023-04-03T00:05:21;2.23;;;1.70;;
55350;SDS011;62194;49.480;10.986;2023-04-03T00:05:26;2.38;;;1.80;;
55350;SDS011;62194;49.480;10.986;2023-04-03T00:05:32;2.60;;;1.90;;
55350;SDS011;62194;49.480;10.986;2023-04-03T00:05:38;2.80;;;1.90;;
55350;SDS011;62194;49.480;10.986;2023-04-03T00:05:46;3.20;;;1.80;;
55350;SDS011;62194;49.480;10.986;2023-04-03T00:05:51;3.15;;;1.73;;
55350;SDS011;62194;49.480;10.986;2023-04-03T00:05:57;2.93;;;1.70;;
55350;SDS011;62194;49.480;10.986;2023-04-03T00:06:12;2.17;;;1.80;;
55350;SDS011;62194;49.480;10.986;2023-04-03T00:06:17;2.22;;;1.90;;
55350;SDS011;62194;49.480;10.986;2023-04-03T00:06:23;2.20;;;1.87;;
55350;SDS011;62194;49.480;10.986;2023-04-03T00:06:29;2.08;;;1.80;;
55350;SDS011;62194;49.480;10.986;2023-04-03T00:06:36;2.25;;;1.73;;
55350;SDS011;62194;49.480;10.986;2023-04-03T00:06:41;2.43;;;1.77;;
55350;SDS011;62194;49.480;10.986;2023-04-03T00:06:46;2.97;;;1.98;;
55350;SDS011;62194;49.480;10.986;2023-04-03T00:06:52;3.20;;;2.08;;
55350;SDS011;62194;49.480;10.986;2023-04-03T00:06:58;3.67;;;2.10;;
55350;SDS011;62194;49.480;10.986;2023-04-03T00:07:03;3.42;;;2.00;;
55350;SDS011;62194;49.480;10.986;2023-04-03T00:07:11;3.23;;;1.90;;
55350;SDS011;62194;49.480;10.986;2023-04-03T00:07:17;2.43;;;1.73;;
55350;SDS011;62194;49.480;10.986;2023-04-03T00:07:25;2.47;;;1.73;;
55350;SDS011;62194;49.480;10.986;2023-04-03T00:07:31;2.47;;;1.83;;
55350;SDS011;62194;49.480;10.986;2023-04-03T00:07:37;2.92;;;1.85;;
55350;SDS011;62194;49.480;10.986;2023-04-03T00:07:42;3.80;;;1.90;;
55350;SDS011;62194;49.480;10.986;2023-04-03T00:07:48;4.03;;;2.00;;
55350;SDS011;62194;49.480;10.986;2023-04-03T00:07:54;4.37;;;1.90;;
55350;SDS011;62194;49.480;10.986;2023-04-03T00:08:00;4.30;;;1.90;;
55350;SDS011;62194;49.480;10.986;2023-04-03T00:08:07;3.77;;;1.90;;
55350;SDS011;62194;49.480;10.986;2023-04-03T00:08:14;2.97;;;1.80;;
55350;SDS011;62194;49.480;10.986;2023-04-03T00:08:22;2.70;;;1.70;;
55350;SDS011;62194;49.480;10.986;2023-04-03T00:08:27;2.33;;;1.70;;
55350;SDS011;62194;49.480;10.986;2023-04-03T00:08:35;2.40;;;1.70;;
55350;SDS011;62194;49.480;10.986;2023-04-03T00:08:41;2.72;;;1.70;;
55350;SDS011;62194;49.480;10.986;2023-04-03T00:08:46;2.50;;;1.70;;
55350;SDS011;62194;49.480;10.986;2023-04-03T00:08:52;2.72;;;1.70;;
55350;SDS011;62194;49.480;10.986;2023-04-03T00:09:00;2.97;;;1.80;;
55350;SDS011;62194;49.480;10.986;2023-04-03T00:09:05;3.07;;;1.80;;
55350;SDS011;62194;49.480;10.986;2023-04-03T00:09:11;2.58;;;1.80;;
55350;SDS011;62194;49.480;10.986;2023-04-03T00:09:16;2.57;;;1.80;;
55350;SDS011;62194;49.480;10.986;2023-04-03T00:09:21;2.83;;;1.80;;
55350;SDS011;62194;49.480;10.986;2023-04-03T00:09:27;2.70;;;1.80;;
55350;SDS011;62194;49.480;10.986;2023-04-03T00:09:32;2.80;;;1.80;;
55350;SDS011;62194;49.480;10.986;2023-04-03T00:09:37;3.07;;;1.80;;
55350;SDS011;62194;49.480;10.986;2023-04-03T00:09:43;3.17;;;1.80;;
55350;SDS011;62194;49.480;10.986;2023-04-03T00:09:48;3.10;;;1.87;;
55350;SDS011;62194;49.480;10.986;2023-04-03T00:09:53;2.87;;;1.90;;
55350;SDS011;62194;49.480;10.986;2023-04-03T00:09:58;2.60;;;1.90;;
55350;SDS011;62194;49.480;10.986;2023-04-03T00:10:04;2.33;;;1.90;;
55350;SDS011;62194;49.480;10.986;2023-04-03T00:10:10;2.33;;;1.90;;
55350;SDS011;62194;49.480;10.986;2023-04-03T00:10:16;2.63;;;2.00;;
55350;SDS011;62194;49.480;10.986;2023-04-03T00:10:21;2.63;;;1.90;;
55350;SDS011;62194;49.480;10.986;2023-04-03T00:10:27;2.92;;;1.90;;
55350;SDS011;62194;49.480;10.986;2023-04-03T00:10:33;3.07;;;1.90;;
55350;SDS011;62194;49.480;10.986;2023-04-03T00:10:39;3.08;;;1.88;;
55350;SDS011;62194;49.480;10.986;2023-04-03T00:10:44;2.75;;;1.80;;
55350;SDS011;62194;49.480;10.986;2023-04-03T00:10:50;2.50;;;1.80;;
55350;SDS011;62194;49.480;10.986;2023-04-03T00:11:01;2.60;;;1.70;;
55350;SDS011;62194;49.480;10.986;2023-04-03T00:11:07;2.80;;;1.70;;
55350;SDS011;62194;49.480;10.986;2023-04-03T00:11:14;3.10;;;1.80;;
55350;SDS011;62194;49.480;10.986;2023-04-03T00:11:22;4.40;;;1.93;;
55350;SDS011;62194;49.480;10.986;2023-04-03T00:11:28;4.10;;;1.92;;
55350;SDS011;62194;49.480;10.986;2023-04-03T00:11:33;3.77;;;2.00;;
55350;SDS011;62194;49.480;10.986;2023-04-03T00:11:38;3.60;;;1.92;;
55350;SDS011;62194;49.480;10.986;2023-04-03T00:11:47;3.53;;;1.80;;
55350;SDS011;62194;49.480;10.986;2023-04-03T00:11:52;2.28;;;1.80;;
55350;SDS011;62194;49.480;10.986;2023-04-03T00:11:58;2.20;;;1.80;;
55350;SDS011;62194;49.480;10.986;2023-04-03T00:12:05;2.30;;;1.70;;
55350;SDS011;62194;49.480;10.986;2023-04-03T00:12:11;2.23;;;1.70;;
55350;SDS011;62194;49.480;10.986;2023-04-03T00:12:16;2.67;;;1.80;;
55350;SDS011;62194;49.480;10.986;2023-04-03T00:12:21;2.93;;;1.77;;
55350;SDS011;62194;49.480;10.986;2023-04-03T00:12:27;2.90;;;1.80;;
55350;SDS011;62194;49.480;10.986;2023-04-03T00:12:41;3.10;;;1.90;;
55350;SDS011;62194;49.480;10.986;2023-04-03T00:12:46;2.87;;;1.90;;
55350;SDS011;62194;49.480;10.986;2023-04-03T00:12:52;3.00;;;1.95;;
55350;SDS011;62194;49.480;10.986;2023-04-03T00:12:57;3.50;;;1.93;;
55350;SDS011;62194;49.480;10.986;2023-04-03T00:13:03;3.57;;;2.00;;
55350;SDS011;62194;49.480;10.986;2023-04-03T00:13:09;3.53;;;2.00;;
55350;SDS011;62194;49.480;10.986;2023-04-03T00:13:15;3.33;;;1.90;;
55350;SDS011;62194;49.480;10.986;2023-04-03T00:13:21;3.17;;;1.83;;
55350;SDS011;62194;49.480;10.986;2023-04-03T00:13:26;2.95;;;1.90;;
55350;SDS011;62194;49.480;10.986;2023-04-03T00:13:34;3.27;;;1.83;;
55350;SDS011;62194;49.480;10.986;2023-04-03T00:13:40;3.47;;;1.77;;
55350;SDS011;62194;49.480;10.986;2023-04-03T00:13:45;3.23;;;1.70;;
55350;SDS011;62194;49.480;10.986;2023-04-03T00:13:51;3.15;;;1.75;;
55350;SDS011;62194;49.480;10.986;2023-04-03T00:13:56;3.00;;;1.60;;
55350;SDS011;62194;49.480;10.986;2023-04-03T00:14:02;3.33;;;1.77;;
55350;SDS011;62194;49.480;10.986;2023-04-03T00:14:07;2.77;;;1.80;;
55350;SDS011;62194;49.480;10.986;2023-04-03T00:14:13;2.80;;;1.90;;
55350;SDS011;62194;49.480;10.986;2023-04-03T00:14:18;2.77;;;1.90;;
55350;SDS011;62194;49.480;10.986;2023-04-03T00:14:24;2.70;;;1.88;;
55350;SDS011;62194;49.480;10.986;2023-04-03T00:14:29;2.57;;;1.87;;
55350;SDS011;62194;49.480;10.986;2023-04-03T00:14:35;2.55;;;1.67;;
55350;SDS011;62194;49.480;10.986;2023-04-03T00:14:40;2.57;;;1.57;;
55350;SDS011;62194;49.480;10.986;2023-04-03T00:14:45;2.80;;;1.70;;
55350;SDS011;62194;49.480;10.986;2023-04-03T00:14:53;2.80;;;1.70;;
55350;SDS011;62194;49.480;10.986;2023-04-03T00:14:59;2.58;;;1.67;;
55350;SDS011;62194;49.480;10.986;2023-04-03T00:15:04;2.43;;;1.70;;
55350;SDS011;62194;49.480;10.986;2023-04-03T00:15:13;2.45;;;1.77;;
55350;SDS011;62194;49.480;10.986;2023-04-03T00:15:18;2.57;;;1.70;;
55350;SDS011;62194;49.480;10.986;2023-04-03T00:15:24;2.58;;;1.77;;
55350;SDS011;62194;49.480;10.986;2023-04-03T00:15:29;2.77;;;1.90;;
55350;SDS011;62194;49.480;10.986;2023-04-03T00:15:35;3.97;;;1.90;;
55350;SDS011;62194;49.480;10.986;2023-04-03T00:15:41;4.03;;;1.90;;
55350;SDS011;62194;49.480;10.986;2023-04-03T00:15:46;3.97;;;1.98;;
55350;SDS011;62194;49.480;10.986;2023-04-03T00:15:52;3.87;;;1.90;;
55350;SDS011;62194;49.480;10.986;2023-04-03T00:15:57;3.93;;;1.90;;
55350;SDS011;62194;49.480;10.986;2023-04-03T00:16:03;3.42;;;1.90;;
55350;SDS011;62194;49.480;10.986;2023-04-03T00:16:09;2.65;;;2.00;;
55350;SDS011;62194;49.480;10.986;2023-04-03T00:16:15;2.63;;;1.95;;
55350;SDS011;62194;49.480;10.986;2023-04-03T00:16:21;2.75;;;1.90;;
55350;SDS011;62194;49.480;10.986;2023-04-03T00:16:26;2.63;;;1.90;;
55350;SDS011;62194;49.480;10.986;2023-04-03T00:16:31;2.67;;;1.77;;
55350;SDS011;62194;49.480;10.986;2023-04-03T00:16:37;2.60;;;1.77;;
55350;SDS011;62194;49.480;10.986;2023-04-03T00:16:42;2.80;;;1.80;;
55350;SDS011;62194;49.480;10.986;2023-04-03T00:16:47;3.03;;;1.80;;
55350;SDS011;62194;49.480;10.986;2023-04-03T00:16:53;3.37;;;1.87;;
55350;SDS011;62194;49.480;10.986;2023-04-03T00:16:58;3.50;;;1.90;;
55350;SDS011;62194;49.480;10.986;2023-04-03T00:17:03;3.28;;;1.98;;
55350;SDS011;62194;49.480;10.986;2023-04-03T00:17:09;3.40;;;1.90;;
55350;SDS011;62194;49.480;10.986;2023-04-03T00:17:14;3.75;;;1.90;;
55350;SDS011;62194;49.480;10.986;2023-04-03T00:17:19;3.27;;;1.83;;
55350;SDS011;62194;49.480;10.986;2023-04-03T00:17:25;3.20;;;1.80;;
55350;SDS011;62194;49.480;10.986;2023-04-03T00:17:30;2.93;;;1.80;;
55350;SDS011;62194;49.480;10.986;2023-04-03T00:17:35;2.88;;;1.80;;
55350;SDS011;62194;49.480;10.986;2023-04-03T00:17:41;2.43;;;1.80;;
55350;SDS011;62194;49.480;10.986;2023-04-03T00:17:46;2.25;;;1.80;;
55350;SDS011;62194;49.480;10.986;2023-04-03T00:17:51;2.40;;;1.93;;
55350;SDS011;62194;49.480;10.986;2023-04-03T00:17:57;2.47;;;2.00;;
55350;SDS011;62194;49.480;10.986;2023-04-03T00:18:02;2.45;;;2.00;;
55350;SDS011;62194;49.480;10.986;2023-04-03T00:18:08;2.42;;;2.00;;
55350;SDS011;62194;49.480;10.986;2023-04-03T00:18:14;2.20;;;1.90;;
55350;SDS011;62194;49.480;10.986;2023-04-03T00:18:20;2.10;;;1.80;;
55350;SDS011;62194;49.480;10.986;2023-04-03T00:18:25;2.03;;;1.80;;
55350;SDS011;62194;49.480;10.986;2023-04-03T00:18:31;2.20;;;1.80;;
55350;SDS011;62194;49.480;10.986;2023-04-03T00:18:37;2.35;;;1.80;;
55350;SDS011;62194;49.480;10.986;2023-04-03T00:18:43;2.50;;;1.83;;
55350;SDS011;62194;49.480;10.986;2023-04-03T00:18:49;2.92;;;1.90;;
55350;SDS011;62194;49.480;10.986;2023-04-03T00:18:54;3.00;;;1.87;;
55350;SDS011;62194;49.480;10.986;2023-04-03T00:18:59;2.70;;;1.80;;
55350;SDS011;62194;49.480;10.986;2023-04-03T00:19:05;2.58;;;1.77;;
55350;SDS011;62194;49.480;10.986;2023-04-03T00:19:10;2.67;;;1.80;;
55350;SDS011;62194;49.480;10.986;2023-04-03T00:19:16;2.28;;;1.70;;
55350;SDS011;62194;49.480;10.986;2023-04-03T00:19:22;2.17;;;1.70;;
55350;SDS011;62194;49.480;10.986;2023-04-03T00:19:27;2.20;;;1.70;;
55350;SDS011;62194;49.480;10.986;2023-04-03T00:19:32;2.23;;;1.80;;
55350;SDS011;62194;49.480;10.986;2023-04-03T00:19:38;2.22;;;1.80;;
55350;SDS011;62194;49.480;10.986;2023-04-03T00:19:43;2.03;;;1.73;;
55350;SDS011;62194;49.480;10.986;2023-04-03T00:19:48;2.23;;;1.80;;
55350;SDS011;62194;49.480;10.986;2023-04-03T00:19:54;2.25;;;1.80;;
55350;SDS011;62194;49.480;10.986;2023-04-03T00:19:59;2.13;;;1.77;;
55350;SDS011;62194;49.480;10.986;2023-04-03T00:20:04;2.13;;;1.70;;
55350;SDS011;62194;49.480;10.986;2023-04-03T00:20:11;2.28;;;1.78;;
55350;SDS011;62194;49.480;10.986;2023-04-03T00:20:17;2.20;;;1.70;;
55350;SDS011;62194;49.480;10.986;2023-04-03T00:20:22;2.30;;;1.80;;
55350;SDS011;62194;49.480;10.986;2023-04-03T00:20:28;2.20;;;1.80;;
55350;SDS011;62194;49.480;10.986;2023-04-03T00:20:33;2.33;;;1.80;;
55350;SDS011;62194;49.480;10.986;2023-04-03T00:20:39;2.53;;;1.90;;
55350;SDS011;62194;49.480;10.986;2023-04-03T00:20:44;2.53;;;1.90;;
55350;SDS011;62194;49.480;10.986;2023-04-03T00:20:50;2.57;;;1.90;;
55350;SDS011;62194;49.480;10.986;2023-04-03T00:20:55;2.70;;;1.90;;
55350;SDS011;62194;49.480;10.986;2023-04-03T00:21:00;2.83;;;2.00;;
55350;SDS011;62194;49.480;10.986;2023-04-03T00:21:06;2.67;;;1.93;;
55350;SDS011;62194;49.480;10.986;2023-04-03T00:21:12;2.37;;;1.80;;
55350;SDS011;62194;49.480;10.986;2023-04-03T00:21:18;2.30;;;1.75;;
55350;SDS011;62194;49.480;10.986;2023-04-03T00:21:23;2.15;;;1.70;;
55350;SDS011;62194;49.480;10.986;2023-04-03T00:21:29;2.33;;;1.70;;
55350;SDS011;62194;49.480;10.986;2023-04-03T00:21:35;2.33;;;1.67;;
55350;SDS011;62194;49.480;10.986;2023-04-03T00:21:40;2.45;;;1.73;;
55350;SDS011;62194;49.480;10.986;2023-04-03T00:21:46;3.20;;;1.90;;
55350;SDS011;62194;49.480;10.986;2023-04-03T00:21:51;3.20;;;1.90;;
55350;SDS011;62194;49.480;10.986;2023-04-03T00:21:58;3.03;;;1.90;;
55350;SDS011;62194;49.480;10.986;2023-04-03T00:22:03;2.90;;;1.85;;
55350;SDS011;62194;49.480;10.986;2023-04-03T00:22:09;3.10;;;1.90;;
55350;SDS011;62194;49.480;10.986;2023-04-03T00:22:14;2.60;;;1.85;;
55350;SDS011;62194;49.480;10.986;2023-04-03T00:22:20;3.13;;;1.90;;
55350;SDS011;62194;49.480;10.986;2023-04-03T00:22:25;3.63;;;2.00;;
55350;SDS011;62194;49.480;10.986;2023-04-03T00:22:33;3.80;;;2.03;;
55350;SDS011;62194;49.480;10.986;2023-04-03T00:22:38;4.03;;;2.10;;
55350;SDS011;62194;49.480;10.986;2023-04-03T00:22:44;4.07;;;2.03;;
55350;SDS011;62194;49.480;10.986;2023-04-03T00:22:49;3.90;;;2.00;;
55350;SDS011;62194;49.480;10.986;2023-04-03T00:22:55;3.53;;;1.93;;
55350;SDS011;62194;49.480;10.986;2023-04-03T00:23:01;3.67;;;1.95;;
55350;SDS011;62194;49.480;10.986;2023-04-03T00:23:07;3.37;;;1.90;;
55350;SDS011;62194;49.480;10.986;2023-04-03T00:23:12;3.35;;;1.83;;
55350;SDS011;62194;49.480;10.986;2023-04-03T00:23:17;3.20;;;1.90;;
55350;SDS011;62194;49.480;10.986;2023-04-03T00:23:23;3.17;;;1.93;;
55350;SDS011;62194;49.480;10.986;2023-04-03T00:23:28;3.05;;;1.85;;
55350;SDS011;62194;49.480;10.986;2023-04-03T00:23:34;3.10;;;1.80;;
55350;SDS011;62194;49.480;10.986;2023-04-03T00:23:40;2.90;;;1.80;;
55350;SDS011;62194;49.480;10.986;2023-04-03T00:23:45;2.73;;;1.77;;
55350;SDS011;62194;49.480;10.986;2023-04-03T00:23:50;2.73;;;1.80;;
55350;SDS011;62194;49.480;10.986;2023-04-03T00:23:56;2.83;;;1.83;;
55350;SDS011;62194;49.480;10.986;2023-04-03T00:24:01;2.50;;;1.90;;
55350;SDS011;62194;49.480;10.986;2023-04-03T00:24:06;2.57;;;1.93;;
55350;SDS011;62194;49.480;10.986;2023-04-03T00:24:12;3.42;;;2.00;;
55350;SDS011;62194;49.480;10.986;2023-04-03T00:24:17;3.33;;;2.00;;
55350;SDS011;62194;49.480;10.986;2023-04-03T00:24:22;3.40;;;1.90;;
55350;SDS011;62194;49.480;10.986;2023-04-03T00:24:28;3.77;;;2.00;;
55350;SDS011;62194;49.480;10.986;2023-04-03T00:24:33;3.88;;;2.00;;
55350;SDS011;62194;49.480;10.986;2023-04-03T00:24:38;3.50;;;2.00;;
55350;SDS011;62194;49.480;10.986;2023-04-03T00:24:44;3.35;;;2.05;;
55350;SDS011;62194;49.480;10.986;2023-04-03T00:24:49;3.80;;;2.00;;
55350;SDS011;62194;49.480;10.986;2023-04-03T00:24:55;3.50;;;1.97;;
55350;SDS011;62194;49.480;10.986;2023-04-03T00:25:00;2.85;;;1.88;;
55350;SDS011;62194;49.480;10.986;2023-04-03T00:25:06;2.80;;;1.80;;
55350;SDS011;62194;49.480;10.986;2023-04-03T00:25:12;2.88;;;1.73;;
55350;SDS011;62194;49.480;10.986;2023-04-03T00:25:17;2.40;;;1.75;;
55350;SDS011;62194;49.480;10.986;2023-04-03T00:25:22;2.33;;;1.80;;
55350;SDS011;62194;49.480;10.986;2023-04-03T00:25:28;2.53;;;1.83;;
55350;SDS011;62194;49.480;10.986;2023-04-03T00:25:33;3.00;;;2.00;;
55350;SDS011;62194;49.480;10.986;2023-04-03T00:25:38;3.07;;;1.90;;
55350;SDS011;62194;49.480;10.986;2023-04-03T00:25:44;2.60;;;1.83;;
55350;SDS011;62194;49.480;10.986;2023-04-03T00:25:50;2.60;;;1.80;;
55350;SDS011;62194;49.480;10.986;2023-04-03T00:25:55;2.83;;;1.90;;
55350;SDS011;62194;49.480;10.986;2023-04-03T00:26:01;2.58;;;1.80;;
55350;SDS011;62194;49.480;10.986;2023-04-03T00:26:06;2.58;;;1.80;;
55350;SDS011;62194;49.480;10.986;2023-04-03T00:26:12;2.57;;;1.93;;
55350;SDS011;62194;49.480;10.986;2023-04-03T00:26:17;2.93;;;2.00;;
55350;SDS011;62194;49.480;10.986;2023-04-03T00:26:23;2.85;;;1.90;;
55350;SDS011;62194;49.480;10.986;2023-04-03T00:26:28;2.50;;;1.80;;
55350;SDS011;62194;49.480;10.986;2023-04-03T00:26:33;2.53;;;1.80;;
55350;SDS011;62194;49.480;10.986;2023-04-03T00:26:39;2.28;;;1.83;;
55350;SDS011;62194;49.480;10.986;2023-04-03T00:26:44;2.13;;;1.70;;
55350;SDS011;62194;49.480;10.986;2023-04-03T00:26:49;2.33;;;1.77;;
55350;SDS011;62194;49.480;10.986;2023-04-03T00:26:55;2.60;;;1.87;;
55350;SDS011;62194;49.480;10.986;2023-04-03T00:27:00;2.73;;;1.90;;
55350;SDS011;62194;49.480;10.986;2023-04-03T00:27:05;2.90;;;1.92;;
55350;SDS011;62194;49.480;10.986;2023-04-03T00:27:11;2.80;;;1.90;;
55350;SDS011;62194;49.480;10.986;2023-04-03T00:27:17;2.78;;;1.90;;
55350;SDS011;62194;49.480;10.986;2023-04-03T00:27:22;2.40;;;1.87;;
55350;SDS011;62194;49.480;10.986;2023-04-03T00:27:27;2.30;;;1.80;;
55350;SDS011;62194;49.480;10.986;2023-04-03T00:27:33;2.20;;;1.80;;
55350;SDS011;62194;49.480;10.986;2023-04-03T00:27:38;2.27;;;1.70;;
55350;SDS011;62194;49.480;10.986;2023-04-03T00:27:44;2.70;;;1.73;;
55350;SDS011;62194;49.480;10.986;2023-04-03T00:27:50;2.60;;;1.70;;
55350;SDS011;62194;49.480;10.986;2023-04-03T00:27:55;2.40;;;1.70;;
55350;SDS011;62194;49.480;10.986;2023-04-03T00:28:01;2.30;;;1.70;;
55350;SDS011;62194;49.480;10.986;2023-04-03T00:28:07;2.17;;;1.67;;
55350;SDS011;62194;49.480;10.986;2023-04-03T00:28:13;1.90;;;1.70;;
55350;SDS011;62194;49.480;10.986;2023-04-03T00:28:18;1.93;;;1.73;;
55350;SDS011;62194;49.480;10.986;2023-04-03T00:28:24;2.00;;;1.80;;
55350;SDS011;62194;49.480;10.986;2023-04-03T00:28:30;1.98;;;1.70;;
55350;SDS011;62194;49.480;10.986;2023-04-03T00:28:35;2.25;;;1.70;;
55350;SDS011;62194;49.480;10.986;2023-04-03T00:28:40;2.37;;;1.70;;
55350;SDS011;62194;49.480;10.986;2023-04-03T00:28:46;2.47;;;1.80;;
55350;SDS011;62194;49.480;10.986;2023-04-03T00:28:51;2.70;;;2.00;;
55350;SDS011;62194;49.480;10.986;2023-04-03T00:28:57;3.10;;;2.00;;
55350;SDS011;62194;49.480;10.986;2023-04-03T00:29:02;2.90;;;2.00;;
55350;SDS011;62194;49.480;10.986;2023-04-03T00:29:07;2.50;;;1.97;;
55350;SDS011;62194;49.480;10.986;2023-04-03T00:29:13;2.55;;;1.98;;
55350;SDS011;62194;49.480;10.986;2023-04-03T00:29:18;2.33;;;1.80;;
55350;SDS011;62194;49.480;10.986;2023-04-03T00:29:23;2.30;;;1.87;;
55350;SDS011;62194;49.480;10.986;2023-04-03T00:29:29;2.42;;;1.90;;
55350;SDS011;62194;49.480;10.986;2023-04-03T00:29:35;2.97;;;2.00;;
55350;SDS011;62194;49.480;10.986;2023-04-03T00:29:40;3.07;;;1.90;;
55350;SDS011;62194;49.480;10.986;2023-04-03T00:29:45;3.03;;;1.90;;
55350;SDS011;62194;49.480;10.986;2023-04-03T00:29:51;3.10;;;1.90;;
55350;SDS011;62194;49.480;10.986;2023-04-03T00:29:56;3.03;;;1.90;;
55350;SDS011;62194;49.480;10.986;2023-04-03T00:30:02;3.73;;;1.97;;
55350;SDS011;62194;49.480;10.986;2023-04-03T00:30:16;3.70;;;2.10;;
55350;SDS011;62194;49.480;10.986;2023-04-03T00:30:23;3.33;;;2.00;;
55350;SDS011;62194;49.480;10.986;2023-04-03T00:30:28;3.00;;;1.97;;
55350;SDS011;62194;49.480;10.986;2023-04-03T00:30:34;2.80;;;1.85;;
55350;SDS011;62194;49.480;10.986;2023-04-03T00:30:40;2.75;;;1.80;;
55350;SDS011;62194;49.480;10.986;2023-04-03T00:30:46;2.80;;;1.80;;
55350;SDS011;62194;49.480;10.986;2023-04-03T00:30:51;2.85;;;1.80;;
55350;SDS011;62194;49.480;10.986;2023-04-03T00:30:56;2.73;;;1.80;;
55350;SDS011;62194;49.480;10.986;2023-04-03T00:31:02;2.40;;;1.85;;
55350;SDS011;62194;49.480;10.986;2023-04-03T00:31:07;2.13;;;1.80;;
55350;SDS011;62194;49.480;10.986;2023-04-03T00:31:16;2.17;;;1.80;;
55350;SDS011;62194;49.480;10.986;2023-04-03T00:31:21;1.98;;;1.75;;
55350;SDS011;62194;49.480;10.986;2023-04-03T00:31:27;2.13;;;1.70;;
55350;SDS011;62194;49.480;10.986;2023-04-03T00:31:32;2.17;;;1.67;;
55350;SDS011;62194;49.480;10.986;2023-04-03T00:31:37;2.60;;;1.70;;
55350;SDS011;62194;49.480;10.986;2023-04-03T00:31:43;2.88;;;1.73;;
55350;SDS011;62194;49.480;10.986;2023-04-03T00:31:48;2.93;;;1.63;;
55350;SDS011;62194;49.480;10.986;2023-04-03T00:31:53;2.80;;;1.63;;
55350;SDS011;62194;49.480;10.986;2023-04-03T00:31:59;3.20;;;1.70;;
55350;SDS011;62194;49.480;10.986;2023-04-03T00:32:04;3.17;;;1.73;;
55350;SDS011;62194;49.480;10.986;2023-04-03T00:32:09;2.97;;;1.80;;
55350;SDS011;62194;49.480;10.986;2023-04-03T00:32:15;3.20;;;1.97;;
55350;SDS011;62194;49.480;10.986;2023-04-03T00:32:20;3.40;;;2.13;;
55350;SDS011;62194;49.480;10.986;2023-04-03T00:32:25;3.40;;;2.20;;
55350;SDS011;62194;49.480;10.986;2023-04-03T00:32:30;2.90;;;2.15;;
55350;SDS011;62194;49.480;10.986;2023-04-03T00:32:36;2.57;;;2.10;;
55350;SDS011;62194;49.480;10.986;2023-04-03T00:32:42;2.38;;;2.03;;
55350;SDS011;62194;49.480;10.986;2023-04-03T00:32:48;2.10;;;1.90;;
55350;SDS011;62194;49.480;10.986;2023-04-03T00:32:54;2.07;;;1.87;;
55350;SDS011;62194;49.480;10.986;2023-04-03T00:32:59;2.10;;;1.90;;
55350;SDS011;62194;49.480;10.986;2023-04-03T00:33:05;2.75;;;2.00;;
55350;SDS011;62194;49.480;10.986;2023-04-03T00:33:13;2.92;;;2.10;;
55350;SDS011;62194;49.480;10.986;2023-04-03T00:33:19;3.07;;;2.10;;
55350;SDS011;62194;49.480;10.986;2023-04-03T00:33:27;3.20;;;2.20;;
55350;SDS011;62194;49.480;10.986;2023-04-03T00:33:32;3.13;;;2.10;;
55350;SDS011;62194;49.480;10.986;2023-04-03T00:33:38;2.83;;;2.10;;
55350;SDS011;62194;49.480;10.986;2023-04-03T00:33:43;2.80;;;2.10;;
55350;SDS011;62194;49.480;10.986;2023-04-03T00:33:48;2.77;;;2.10;;
55350;SDS011;62194;49.480;10.986;2023-04-03T00:33:54;2.60;;;2.00;;
55350;SDS011;62194;49.480;10.986;2023-04-03T00:34:00;2.63;;;1.93;;
55350;SDS011;62194;49.480;10.986;2023-04-03T00:34:05;2.40;;;1.93;;
55350;SDS011;62194;49.480;10.986;2023-04-03T00:34:10;2.20;;;1.80;;
55350;SDS011;62194;49.480;10.986;2023-04-03T00:34:15;2.23;;;1.80;;
55350;SDS011;62194;49.480;10.986;2023-04-03T00:34:21;2.33;;;1.80;;
55350;SDS011;62194;49.480;10.986;2023-04-03T00:34:26;2.67;;;1.83;;